sensor_id;sensor_type;location;lat;lon;timestamp;pressure;altitude;pressure_sealevel;temperature;humidity
59106;BME280;44891;50.204;8.132;2023-06-19T00:00:22;97748.50;;;19.77;93.06
59106;BME280;44891;50.204;8.132;2023-06-19T00:04:24;97746.88;;;19.59;92.30
59106;BME280;44891;50.204;8.132;2023-06-19T00:08:28;97734.06;;;19.69;95.01
59106;BME280;44891;50.204;8.132;2023-06-19T00:12:31;97725.50;;;19.50;96.10
59106;BME280;44891;50.204;8.132;2023-06-19T00:16:33;97726.34;;;19.59;96.33
59106;BME280;44891;50.204;8.132;2023-06-19T00:20:34;97733.84;;;19.57;96.43
59106;BME280;44891;50.204;8.132;2023-06-19T00:24:38;97722.38;;;19.48;94.82
59106;BME280;44891;50.204;8.132;2023-06-19T00:28:40;97733.19;;;19.51;91.71
59106;BME280;44891;50.204;8.132;2023-06-19T00:32:42;97731.50;;;19.24;93.18
59106;BME280;44891;50.204;8.132;2023-06-19T00:36:51;97740.97;;;19.08;96.93
59106;BME280;44891;50.204;8.132;2023-06-19T00:40:58;97733.47;;;19.10;95.60
59106;BME280;44891;50.204;8.132;2023-06-19T00:44:59;97739.13;;;19.09;95.59
59106;BME280;44891;50.204;8.132;2023-06-19T00:49:01;97741.03;;;18.94;96.98
59106;BME280;44891;50.204;8.132;2023-06-19T00:53:03;97729.19;;;19.00;96.15
59106;BME280;44891;50.204;8.132;2023-06-19T00:57:07;97721.84;;;19.06;92.89
59106;BME280;44891;50.204;8.132;2023-06-19T01:01:09;97722.91;;;18.96;94.83
59106;BME280;44891;50.204;8.132;2023-06-19T01:05:11;97732.34;;;18.80;94.51
59106;BME280;44891;50.204;8.132;2023-06-19T01:09:13;97727.63;;;18.77;92.02
59106;BME280;44891;50.204;8.132;2023-06-19T01:13:19;97735.41;;;18.51;95.63
59106;BME280;44891;50.204;8.132;2023-06-19T01:17:25;97744.59;;;18.67;95.22
59106;BME280;44891;50.204;8.132;2023-06-19T01:21:28;97742.44;;;18.92;92.36
59106;BME280;44891;50.204;8.132;2023-06-19T01:25:31;97730.81;;;18.43;93.67
59106;BME280;44891;50.204;8.132;2023-06-19T01:29:33;97730.63;;;18.62;89.67
59106;BME280;44891;50.204;8.132;2023-06-19T01:33:35;97734.72;;;18.45;90.87
59106;BME280;44891;50.204;8.132;2023-06-19T01:37:38;97729.19;;;18.56;92.31
59106;BME280;44891;50.204;8.132;2023-06-19T01:41:43;97733.88;;;18.59;93.86
59106;BME280;44891;50.204;8.132;2023-06-19T01:45:45;97738.13;;;18.60;94.31
59106;BME280;44891;50.204;8.132;2023-06-19T01:49:47;97731.72;;;18.61;94.72
59106;BME280;44891;50.204;8.132;2023-06-19T01:53:49;97739.06;;;18.78;93.51
59106;BME280;44891;50.204;8.132;2023-06-19T01:57:52;97746.50;;;18.67;91.99
59106;BME280;44891;50.204;8.132;2023-06-19T02:01:54;97755.81;;;18.78;88.36
59106;BME280;44891;50.204;8.132;2023-06-19T02:05:56;97755.19;;;18.81;89.54
59106;BME280;44891;50.204;8.132;2023-06-19T02:09:59;97755.84;;;18.87;88.50
59106;BME280;44891;50.204;8.132;2023-06-19T02:14:02;97763.53;;;18.88;89.32
59106;BME280;44891;50.204;8.132;2023-06-19T02:18:04;97762.69;;;18.79;90.38
59106;BME280;44891;50.204;8.132;2023-06-19T02:22:06;97759.25;;;18.79;90.32
59106;BME280;44891;50.204;8.132;2023-06-19T02:26:08;97760.16;;;18.74;89.83
59106;BME280;44891;50.204;8.132;2023-06-19T02:30:11;97767.84;;;18.62;90.69
59106;BME280;44891;50.204;8.132;2023-06-19T02:34:13;97772.00;;;18.68;90.35
59106;BME280;44891;50.204;8.132;2023-06-19T02:38:15;97771.50;;;18.66;88.73
59106;BME280;44891;50.204;8.132;2023-06-19T02:42:19;97767.16;;;18.34;89.79
59106;BME280;44891;50.204;8.132;2023-06-19T02:46:22;97771.84;;;18.51;87.90
59106;BME280;44891;50.204;8.132;2023-06-19T02:50:24;97772.59;;;18.65;88.52
59106;BME280;44891;50.204;8.132;2023-06-19T02:54:26;97787.56;;;18.61;91.44
59106;BME280;44891;50.204;8.132;2023-06-19T02:58:27;97784.84;;;19.42;78.40
59106;BME280;44891;50.204;8.132;2023-06-19T03:02:31;97788.34;;;19.82;72.87
59106;BME280;44891;50.204;8.132;2023-06-19T03:06:34;97800.47;;;19.97;71.07
59106;BME280;44891;50.204;8.132;2023-06-19T03:10:40;97803.38;;;20.35;70.00
59106;BME280;44891;50.204;8.132;2023-06-19T03:14:42;97805.72;;;20.36;72.03
59106;BME280;44891;50.204;8.132;2023-06-19T03:18:46;97800.53;;;20.23;73.85
59106;BME280;44891;50.204;8.132;2023-06-19T03:22:49;97812.09;;;20.18;74.05
59106;BME280;44891;50.204;8.132;2023-06-19T03:26:52;97813.72;;;20.28;73.55
59106;BME280;44891;50.204;8.132;2023-06-19T03:30:54;97820.47;;;20.43;72.29
59106;BME280;44891;50.204;8.132;2023-06-19T03:34:59;97821.94;;;20.49;67.01
59106;BME280;44891;50.204;8.132;2023-06-19T03:39:01;97835.28;;;20.49;68.18
59106;BME280;44891;50.204;8.132;2023-06-19T03:43:05;97838.91;;;20.61;69.28
59106;BME280;44891;50.204;8.132;2023-06-19T03:47:07;97848.31;;;20.68;65.99
59106;BME280;44891;50.204;8.132;2023-06-19T03:51:10;97845.47;;;20.73;65.45
59106;BME280;44891;50.204;8.132;2023-06-19T03:55:13;97849.25;;;20.72;66.29
59106;BME280;44891;50.204;8.132;2023-06-19T03:59:15;97856.94;;;20.64;66.10
59106;BME280;44891;50.204;8.132;2023-06-19T04:03:17;97861.97;;;20.66;69.67
59106;BME280;44891;50.204;8.132;2023-06-19T04:07:21;97862.75;;;20.67;67.17
59106;BME280;44891;50.204;8.132;2023-06-19T04:11:23;97867.94;;;20.72;65.62
59106;BME280;44891;50.204;8.132;2023-06-19T04:15:25;97882.88;;;20.81;64.49
59106;BME280;44891;50.204;8.132;2023-06-19T04:19:27;97886.97;;;20.87;64.94
59106;BME280;44891;50.204;8.132;2023-06-19T04:23:32;97896.84;;;20.87;67.28
59106;BME280;44891;50.204;8.132;2023-06-19T04:27:34;97889.13;;;20.85;66.79
59106;BME280;44891;50.204;8.132;2023-06-19T04:31:36;97890.41;;;20.97;65.17
59106;BME280;44891;50.204;8.132;2023-06-19T04:35:41;97884.13;;;21.01;65.93
59106;BME280;44891;50.204;8.132;2023-06-19T04:39:44;97890.91;;;21.07;68.35
59106;BME280;44891;50.204;8.132;2023-06-19T04:43:46;97895.59;;;21.10;65.76
59106;BME280;44891;50.204;8.132;2023-06-19T04:47:48;97898.72;;;21.12;66.46
59106;BME280;44891;50.204;8.132;2023-06-19T04:51:50;97900.00;;;21.24;65.96
59106;BME280;44891;50.204;8.132;2023-06-19T04:55:53;97898.41;;;21.23;65.59
59106;BME280;44891;50.204;8.132;2023-06-19T04:59:55;97898.16;;;21.33;66.66
59106;BME280;44891;50.204;8.132;2023-06-19T05:03:58;97884.44;;;21.26;66.70
59106;BME280;44891;50.204;8.132;2023-06-19T05:08:01;97889.94;;;21.38;66.65
59106;BME280;44891;50.204;8.132;2023-06-19T05:12:04;97897.31;;;21.50;67.01
59106;BME280;44891;50.204;8.132;2023-06-19T05:16:06;97898.09;;;21.50;67.77
59106;BME280;44891;50.204;8.132;2023-06-19T05:20:09;97894.66;;;21.32;67.18
59106;BME280;44891;50.204;8.132;2023-06-19T05:24:12;97895.28;;;21.38;66.96
59106;BME280;44891;50.204;8.132;2023-06-19T05:28:15;97889.63;;;21.48;66.97
59106;BME280;44891;50.204;8.132;2023-06-19T05:32:17;97891.94;;;21.67;67.15
59106;BME280;44891;50.204;8.132;2023-06-19T05:36:19;97905.78;;;21.69;66.74
59106;BME280;44891;50.204;8.132;2023-06-19T05:40:21;97897.75;;;21.69;66.07
59106;BME280;44891;50.204;8.132;2023-06-19T05:44:24;97893.94;;;21.79;65.89
59106;BME280;44891;50.204;8.132;2023-06-19T05:48:26;97916.13;;;21.88;65.75
59106;BME280;44891;50.204;8.132;2023-06-19T05:52:28;97930.09;;;21.93;67.15
59106;BME280;44891;50.204;8.132;2023-06-19T05:56:30;97931.03;;;21.89;65.55
59106;BME280;44891;50.204;8.132;2023-06-19T06:00:34;97943.16;;;21.86;66.15
59106;BME280;44891;50.204;8.132;2023-06-19T06:04:36;97943.59;;;21.97;66.92
59106;BME280;44891;50.204;8.132;2023-06-19T06:08:38;97943.44;;;22.02;66.74
59106;BME280;44891;50.204;8.132;2023-06-19T06:12:40;97944.84;;;22.08;66.42
59106;BME280;44891;50.204;8.132;2023-06-19T06:16:43;97942.13;;;22.25;66.16
59106;BME280;44891;50.204;8.132;2023-06-19T06:20:45;97954.53;;;22.30;65.26
59106;BME280;44891;50.204;8.132;2023-06-19T06:24:47;97953.28;;;22.28;65.10
59106;BME280;44891;50.204;8.132;2023-06-19T06:28:48;97951.13;;;22.50;64.46
59106;BME280;44891;50.204;8.132;2023-06-19T06:32:52;97958.94;;;22.64;66.46
59106;BME280;44891;50.204;8.132;2023-06-19T06:36:53;97969.41;;;22.87;65.44
59106;BME280;44891;50.204;8.132;2023-06-19T06:40:55;97966.81;;;22.99;63.88
59106;BME280;44891;50.204;8.132;2023-06-19T06:44:57;97973.94;;;22.95;64.54
59106;BME280;44891;50.204;8.132;2023-06-19T06:49:00;97985.81;;;22.76;65.53
59106;BME280;44891;50.204;8.132;2023-06-19T06:53:02;97980.59;;;22.80;65.73
59106;BME280;44891;50.204;8.132;2023-06-19T06:57:04;97985.28;;;22.92;65.57
59106;BME280;44891;50.204;8.132;2023-06-19T07:01:06;97969.56;;;22.82;65.43
59106;BME280;44891;50.204;8.132;2023-06-19T07:05:10;97967.28;;;22.71;65.41
59106;BME280;44891;50.204;8.132;2023-06-19T07:09:11;97986.53;;;22.56;66.83
59106;BME280;44891;50.204;8.132;2023-06-19T07:13:13;97984.88;;;22.43;68.64
59106;BME280;44891;50.204;8.132;2023-06-19T07:17:15;97958.56;;;22.45;67.74
59106;BME280;44891;50.204;8.132;2023-06-19T07:21:18;97989.31;;;22.68;68.32
59106;BME280;44891;50.204;8.132;2023-06-19T07:25:20;97994.94;;;22.75;68.72
59106;BME280;44891;50.204;8.132;2023-06-19T07:29:24;98006.59;;;22.79;69.24
59106;BME280;44891;50.204;8.132;2023-06-19T07:33:27;98009.41;;;22.92;68.86
59106;BME280;44891;50.204;8.132;2023-06-19T07:37:31;98002.94;;;22.93;68.88
59106;BME280;44891;50.204;8.132;2023-06-19T07:41:33;98009.69;;;22.90;69.34
59106;BME280;44891;50.204;8.132;2023-06-19T07:45:34;98015.09;;;22.82;68.96
59106;BME280;44891;50.204;8.132;2023-06-19T07:49:36;98017.25;;;22.59;69.98
59106;BME280;44891;50.204;8.132;2023-06-19T07:53:39;98015.53;;;22.84;69.02
59106;BME280;44891;50.204;8.132;2023-06-19T07:57:41;98016.66;;;22.83;69.35
59106;BME280;44891;50.204;8.132;2023-06-19T08:01:43;98021.63;;;23.01;69.27
59106;BME280;44891;50.204;8.132;2023-06-19T08:05:45;98026.69;;;22.94;67.90
59106;BME280;44891;50.204;8.132;2023-06-19T08:09:48;98024.69;;;22.91;67.64
59106;BME280;44891;50.204;8.132;2023-06-19T08:13:50;98027.94;;;22.97;67.83
59106;BME280;44891;50.204;8.132;2023-06-19T08:17:52;98030.00;;;23.00;66.87
59106;BME280;44891;50.204;8.132;2023-06-19T08:21:54;98035.97;;;23.26;67.91
59106;BME280;44891;50.204;8.132;2023-06-19T08:25:57;98038.41;;;23.40;67.80
59106;BME280;44891;50.204;8.132;2023-06-19T08:29:59;98035.47;;;23.54;65.19
59106;BME280;44891;50.204;8.132;2023-06-19T08:34:01;98033.22;;;23.65;64.73
59106;BME280;44891;50.204;8.132;2023-06-19T08:38:07;98034.28;;;23.43;63.92
59106;BME280;44891;50.204;8.132;2023-06-19T08:42:10;98003.75;;;23.35;63.55
59106;BME280;44891;50.204;8.132;2023-06-19T08:46:14;98045.22;;;24.12;62.57
59106;BME280;44891;50.204;8.132;2023-06-19T08:50:18;98006.66;;;24.05;62.01
59106;BME280;44891;50.204;8.132;2023-06-19T08:54:20;98045.31;;;24.04;60.95
59106;BME280;44891;50.204;8.132;2023-06-19T08:58:25;98037.47;;;24.32;60.96
59106;BME280;44891;50.204;8.132;2023-06-19T09:02:36;98032.16;;;24.56;60.03
59106;BME280;44891;50.204;8.132;2023-06-19T09:06:45;98025.88;;;25.01;58.35
59106;BME280;44891;50.204;8.132;2023-06-19T09:10:55;98019.75;;;24.76;59.13
59106;BME280;44891;50.204;8.132;2023-06-19T09:14:58;98029.94;;;24.83;59.10
59106;BME280;44891;50.204;8.132;2023-06-19T09:19:00;98035.63;;;24.93;57.62
59106;BME280;44891;50.204;8.132;2023-06-19T09:23:02;98035.44;;;25.11;57.64
59106;BME280;44891;50.204;8.132;2023-06-19T09:27:07;98036.50;;;25.22;56.64
59106;BME280;44891;50.204;8.132;2023-06-19T09:31:11;98035.28;;;25.32;57.03
59106;BME280;44891;50.204;8.132;2023-06-19T09:35:13;98026.84;;;25.45;56.47
59106;BME280;44891;50.204;8.132;2023-06-19T09:39:15;98025.34;;;25.20;56.29
59106;BME280;44891;50.204;8.132;2023-06-19T09:43:21;98009.50;;;25.43;56.25
59106;BME280;44891;50.204;8.132;2023-06-19T09:47:25;98018.47;;;25.35;54.52
59106;BME280;44891;50.204;8.132;2023-06-19T09:51:32;98026.47;;;25.19;54.75
59106;BME280;44891;50.204;8.132;2023-06-19T09:55:34;98027.66;;;25.34;55.33
59106;BME280;44891;50.204;8.132;2023-06-19T09:59:38;98027.00;;;25.37;56.21
59106;BME280;44891;50.204;8.132;2023-06-19T10:03:42;98025.72;;;25.46;55.91
59106;BME280;44891;50.204;8.132;2023-06-19T10:07:44;98028.25;;;25.55;56.21
59106;BME280;44891;50.204;8.132;2023-06-19T10:11:48;98025.13;;;25.93;55.14
59106;BME280;44891;50.204;8.132;2023-06-19T10:15:51;98026.22;;;26.05;53.72
59106;BME280;44891;50.204;8.132;2023-06-19T10:19:54;98035.50;;;25.79;53.56
59106;BME280;44891;50.204;8.132;2023-06-19T10:23:57;98029.72;;;25.93;53.07
59106;BME280;44891;50.204;8.132;2023-06-19T10:27:59;98025.00;;;26.02;54.06
59106;BME280;44891;50.204;8.132;2023-06-19T10:32:02;98028.34;;;25.71;54.85
59106;BME280;44891;50.204;8.132;2023-06-19T10:36:14;98023.31;;;25.69;54.93
59106;BME280;44891;50.204;8.132;2023-06-19T10:40:16;98031.69;;;25.68;55.28
59106;BME280;44891;50.204;8.132;2023-06-19T10:44:18;98027.56;;;25.70;55.97
59106;BME280;44891;50.204;8.132;2023-06-19T10:48:20;98015.38;;;25.61;56.06
59106;BME280;44891;50.204;8.132;2023-06-19T10:52:24;98012.78;;;25.64;55.01
59106;BME280;44891;50.204;8.132;2023-06-19T10:56:26;98019.47;;;25.42;54.90
59106;BME280;44891;50.204;8.132;2023-06-19T11:00:28;98019.03;;;25.28;55.33
59106;BME280;44891;50.204;8.132;2023-06-19T11:04:31;98016.03;;;25.30;55.09
59106;BME280;44891;50.204;8.132;2023-06-19T11:08:34;98019.72;;;25.37;54.19
59106;BME280;44891;50.204;8.132;2023-06-19T11:12:36;98009.25;;;25.48;54.45
59106;BME280;44891;50.204;8.132;2023-06-19T11:16:38;98008.38;;;25.72;53.67
59106;BME280;44891;50.204;8.132;2023-06-19T11:20:45;98007.13;;;25.82;53.09
59106;BME280;44891;50.204;8.132;2023-06-19T11:24:48;98008.84;;;25.74;51.33
59106;BME280;44891;50.204;8.132;2023-06-19T11:28:50;98005.91;;;25.79;51.63
59106;BME280;44891;50.204;8.132;2023-06-19T11:32:52;98006.66;;;26.08;51.92
59106;BME280;44891;50.204;8.132;2023-06-19T11:36:54;98012.34;;;26.18;50.86
59106;BME280;44891;50.204;8.132;2023-06-19T11:40:57;97984.88;;;26.13;50.57
59106;BME280;44891;50.204;8.132;2023-06-19T11:45:00;98004.13;;;26.43;49.82
59106;BME280;44891;50.204;8.132;2023-06-19T11:49:12;98010.66;;;26.58;48.24
59106;BME280;44891;50.204;8.132;2023-06-19T11:53:14;97996.38;;;26.89;49.45
59106;BME280;44891;50.204;8.132;2023-06-19T11:57:17;97997.41;;;26.84;48.75
59106;BME280;44891;50.204;8.132;2023-06-19T12:01:19;97989.72;;;27.02;48.90
59106;BME280;44891;50.204;8.132;2023-06-19T12:05:21;97979.66;;;27.34;48.12
59106;BME280;44891;50.204;8.132;2023-06-19T12:09:23;97987.16;;;27.25;46.66
59106;BME280;44891;50.204;8.132;2023-06-19T12:13:26;97984.13;;;27.46;45.88
59106;BME280;44891;50.204;8.132;2023-06-19T12:17:28;97987.44;;;27.39;47.53
59106;BME280;44891;50.204;8.132;2023-06-19T12:21:30;97986.75;;;27.23;46.88
59106;BME280;44891;50.204;8.132;2023-06-19T12:25:32;97982.44;;;27.02;46.76
59106;BME280;44891;50.204;8.132;2023-06-19T12:29:35;97982.91;;;27.43;46.86
59106;BME280;44891;50.204;8.132;2023-06-19T12:33:37;97972.59;;;28.07;46.28
59106;BME280;44891;50.204;8.132;2023-06-19T12:37:43;97974.50;;;28.29;45.42
59106;BME280;44891;50.204;8.132;2023-06-19T12:41:45;97969.97;;;28.33;44.42
59106;BME280;44891;50.204;8.132;2023-06-19T12:45:48;97976.28;;;28.41;45.09
59106;BME280;44891;50.204;8.132;2023-06-19T12:49:50;97969.31;;;28.40;44.86
59106;BME280;44891;50.204;8.132;2023-06-19T12:53:52;97969.53;;;28.54;45.25
59106;BME280;44891;50.204;8.132;2023-06-19T12:57:54;97975.84;;;28.88;44.18
59106;BME280;44891;50.204;8.132;2023-06-19T13:01:57;97970.72;;;29.06;43.56
59106;BME280;44891;50.204;8.132;2023-06-19T13:05:59;97970.06;;;28.90;44.04
59106;BME280;44891;50.204;8.132;2023-06-19T13:10:01;97968.28;;;28.75;44.12
59106;BME280;44891;50.204;8.132;2023-06-19T13:14:04;97963.19;;;28.43;43.61
59106;BME280;44891;50.204;8.132;2023-06-19T13:18:07;97953.09;;;28.40;44.50
59106;BME280;44891;50.204;8.132;2023-06-19T13:22:09;97954.88;;;28.32;44.60
59106;BME280;44891;50.204;8.132;2023-06-19T13:26:11;97943.41;;;28.39;44.58
59106;BME280;44891;50.204;8.132;2023-06-19T13:30:13;97942.56;;;28.58;43.70
59106;BME280;44891;50.204;8.132;2023-06-19T13:34:16;97941.69;;;29.03;43.04
59106;BME280;44891;50.204;8.132;2023-06-19T13:38:19;97937.72;;;29.57;42.29
59106;BME280;44891;50.204;8.132;2023-06-19T13:42:21;97946.22;;;29.93;41.80
59106;BME280;44891;50.204;8.132;2023-06-19T13:46:23;97936.19;;;30.38;41.64
59106;BME280;44891;50.204;8.132;2023-06-19T13:50:26;97933.03;;;30.32;39.40
59106;BME280;44891;50.204;8.132;2023-06-19T13:54:28;97922.69;;;30.00;40.42
59106;BME280;44891;50.204;8.132;2023-06-19T13:58:30;97918.88;;;30.09;39.77
59106;BME280;44891;50.204;8.132;2023-06-19T14:02:32;97907.75;;;30.17;40.96
59106;BME280;44891;50.204;8.132;2023-06-19T14:06:35;97905.25;;;30.46;39.81
59106;BME280;44891;50.204;8.132;2023-06-19T14:10:38;97897.69;;;30.76;39.15
59106;BME280;44891;50.204;8.132;2023-06-19T14:14:40;97898.59;;;31.02;38.79
59106;BME280;44891;50.204;8.132;2023-06-19T14:18:42;97895.03;;;30.83;37.76
59106;BME280;44891;50.204;8.132;2023-06-19T14:22:45;97896.56;;;30.81;37.79
59106;BME280;44891;50.204;8.132;2023-06-19T14:26:46;97896.59;;;30.84;38.70
59106;BME280;44891;50.204;8.132;2023-06-19T14:30:48;97892.59;;;30.64;38.59
59106;BME280;44891;50.204;8.132;2023-06-19T14:34:50;97887.31;;;30.89;38.43
59106;BME280;44891;50.204;8.132;2023-06-19T14:38:53;97890.06;;;30.96;38.20
59106;BME280;44891;50.204;8.132;2023-06-19T14:42:55;97896.31;;;31.07;37.72
59106;BME280;44891;50.204;8.132;2023-06-19T14:46:57;97895.41;;;30.78;38.84
59106;BME280;44891;50.204;8.132;2023-06-19T14:51:00;97877.94;;;30.14;38.73
59106;BME280;44891;50.204;8.132;2023-06-19T14:55:04;97887.56;;;29.67;39.75
59106;BME280;44891;50.204;8.132;2023-06-19T14:59:06;97890.38;;;29.44;40.46
59106;BME280;44891;50.204;8.132;2023-06-19T15:03:08;97894.66;;;29.11;41.16
59106;BME280;44891;50.204;8.132;2023-06-19T15:07:09;97895.22;;;28.94;41.33
59106;BME280;44891;50.204;8.132;2023-06-19T15:11:13;97895.63;;;28.96;41.31
59106;BME280;44891;50.204;8.132;2023-06-19T15:15:15;97897.25;;;28.74;41.57
59106;BME280;44891;50.204;8.132;2023-06-19T15:19:16;97892.06;;;28.62;41.57
59106;BME280;44891;50.204;8.132;2023-06-19T15:23:18;97894.63;;;28.28;41.93
59106;BME280;44891;50.204;8.132;2023-06-19T15:27:21;97891.22;;;28.31;42.33
59106;BME280;44891;50.204;8.132;2023-06-19T15:31:25;97881.16;;;28.55;41.78
59106;BME280;44891;50.204;8.132;2023-06-19T15:35:27;97887.94;;;28.71;42.03
59106;BME280;44891;50.204;8.132;2023-06-19T15:39:29;97883.69;;;28.44;42.68
59106;BME280;44891;50.204;8.132;2023-06-19T15:43:32;97878.59;;;28.65;42.29
59106;BME280;44891;50.204;8.132;2023-06-19T15:47:34;97871.41;;;28.77;41.91
59106;BME280;44891;50.204;8.132;2023-06-19T15:51:36;97873.28;;;28.99;42.72
59106;BME280;44891;50.204;8.132;2023-06-19T15:55:37;97866.41;;;29.42;41.24
59106;BME280;44891;50.204;8.132;2023-06-19T15:59:43;97867.59;;;29.11;37.98
59106;BME280;44891;50.204;8.132;2023-06-19T16:03:47;97860.47;;;28.96;39.36
59106;BME280;44891;50.204;8.132;2023-06-19T16:07:49;97860.75;;;28.91;38.14
59106;BME280;44891;50.204;8.132;2023-06-19T16:11:51;97857.56;;;28.82;37.53
59106;BME280;44891;50.204;8.132;2023-06-19T16:15:54;97852.38;;;28.96;37.68
59106;BME280;44891;50.204;8.132;2023-06-19T16:19:55;97851.03;;;28.83;37.78
59106;BME280;44891;50.204;8.132;2023-06-19T16:23:59;97846.78;;;28.85;38.40
59106;BME280;44891;50.204;8.132;2023-06-19T16:28:00;97856.78;;;29.11;38.15
59106;BME280;44891;50.204;8.132;2023-06-19T16:32:04;97850.09;;;28.71;38.12
59106;BME280;44891;50.204;8.132;2023-06-19T16:36:06;97852.66;;;28.91;37.87
59106;BME280;44891;50.204;8.132;2023-06-19T16:40:09;97858.25;;;29.05;38.25
59106;BME280;44891;50.204;8.132;2023-06-19T16:44:11;97850.34;;;29.19;37.75
59106;BME280;44891;50.204;8.132;2023-06-19T16:48:14;97850.84;;;29.32;37.13
59106;BME280;44891;50.204;8.132;2023-06-19T16:52:16;97844.63;;;29.28;37.26
59106;BME280;44891;50.204;8.132;2023-06-19T16:56:18;97854.41;;;29.40;37.27
59106;BME280;44891;50.204;8.132;2023-06-19T17:00:19;97855.44;;;29.28;37.48
59106;BME280;44891;50.204;8.132;2023-06-19T17:04:23;97856.44;;;28.83;38.70
59106;BME280;44891;50.204;8.132;2023-06-19T17:08:24;97857.94;;;28.80;39.00
59106;BME280;44891;50.204;8.132;2023-06-19T17:12:26;97827.22;;;28.62;38.54
59106;BME280;44891;50.204;8.132;2023-06-19T17:16:28;97845.22;;;28.81;39.26
59106;BME280;44891;50.204;8.132;2023-06-19T17:20:31;97846.75;;;28.82;38.78
59106;BME280;44891;50.204;8.132;2023-06-19T17:24:33;97853.25;;;28.77;39.23
59106;BME280;44891;50.204;8.132;2023-06-19T17:28:35;97846.06;;;28.88;40.69
59106;BME280;44891;50.204;8.132;2023-06-19T17:32:37;97849.00;;;28.46;41.88
59106;BME280;44891;50.204;8.132;2023-06-19T17:36:40;97853.28;;;28.24;42.91
59106;BME280;44891;50.204;8.132;2023-06-19T17:40:42;97861.13;;;27.83;43.38
59106;BME280;44891;50.204;8.132;2023-06-19T17:44:44;97866.88;;;27.82;43.62
59106;BME280;44891;50.204;8.132;2023-06-19T17:48:46;97870.63;;;27.74;43.49
59106;BME280;44891;50.204;8.132;2023-06-19T17:52:49;97858.97;;;27.70;43.79
59106;BME280;44891;50.204;8.132;2023-06-19T17:56:51;97874.50;;;27.57;44.18
59106;BME280;44891;50.204;8.132;2023-06-19T18:00:52;97875.28;;;27.57;45.68
59106;BME280;44891;50.204;8.132;2023-06-19T18:04:54;97871.41;;;27.55;46.27
59106;BME280;44891;50.204;8.132;2023-06-19T18:08:57;97876.31;;;27.49;46.73
59106;BME280;44891;50.204;8.132;2023-06-19T18:12:59;97877.00;;;27.46;46.88
59106;BME280;44891;50.204;8.132;2023-06-19T18:17:02;97889.53;;;27.35;47.18
59106;BME280;44891;50.204;8.132;2023-06-19T18:21:05;97887.41;;;27.25;47.99
59106;BME280;44891;50.204;8.132;2023-06-19T18:25:08;97880.69;;;27.15;47.69
59106;BME280;44891;50.204;8.132;2023-06-19T18:29:10;97876.38;;;26.95;48.01
59106;BME280;44891;50.204;8.132;2023-06-19T18:33:12;97888.34;;;26.78;48.82
59106;BME280;44891;50.204;8.132;2023-06-19T18:37:13;97880.53;;;26.73;49.25
59106;BME280;44891;50.204;8.132;2023-06-19T18:41:17;97879.81;;;26.56;49.40
59106;BME280;44891;50.204;8.132;2023-06-19T18:45:18;97888.09;;;26.48;50.13
59106;BME280;44891;50.204;8.132;2023-06-19T18:49:20;97887.56;;;26.42;50.15
59106;BME280;44891;50.204;8.132;2023-06-19T18:53:22;97879.47;;;26.26;49.88
59106;BME280;44891;50.204;8.132;2023-06-19T18:57:25;97880.28;;;26.11;50.11
59106;BME280;44891;50.204;8.132;2023-06-19T19:01:28;97881.06;;;25.96;50.60
59106;BME280;44891;50.204;8.132;2023-06-19T19:05:30;97889.56;;;25.82;50.64
59106;BME280;44891;50.204;8.132;2023-06-19T19:09:33;97887.34;;;25.72;50.80
59106;BME280;44891;50.204;8.132;2023-06-19T19:13:36;97882.81;;;25.60;50.98
59106;BME280;44891;50.204;8.132;2023-06-19T19:17:38;97880.97;;;25.48;51.28
59106;BME280;44891;50.204;8.132;2023-06-19T19:21:40;97891.38;;;25.22;52.18
59106;BME280;44891;50.204;8.132;2023-06-19T19:25:42;97892.13;;;25.07;52.77
59106;BME280;44891;50.204;8.132;2023-06-19T19:29:45;97886.31;;;24.92;53.62
59106;BME280;44891;50.204;8.132;2023-06-19T19:33:47;97888.16;;;24.76;53.88
59106;BME280;44891;50.204;8.132;2023-06-19T19:37:48;97893.22;;;24.53;55.50
59106;BME280;44891;50.204;8.132;2023-06-19T19:41:50;97895.66;;;24.58;56.18
59106;BME280;44891;50.204;8.132;2023-06-19T19:45:53;97897.13;;;24.31;55.44
59106;BME280;44891;50.204;8.132;2023-06-19T19:49:55;97900.09;;;24.30;55.73
59106;BME280;44891;50.204;8.132;2023-06-19T19:53:57;97909.19;;;24.25;57.44
59106;BME280;44891;50.204;8.132;2023-06-19T19:57:59;97911.75;;;24.22;58.19
59106;BME280;44891;50.204;8.132;2023-06-19T20:02:04;97909.06;;;24.22;58.17
59106;BME280;44891;50.204;8.132;2023-06-19T20:06:10;97908.16;;;24.05;58.51
59106;BME280;44891;50.204;8.132;2023-06-19T20:10:12;97919.84;;;23.88;59.27
59106;BME280;44891;50.204;8.132;2023-06-19T20:14:14;97921.53;;;23.81;59.12
59106;BME280;44891;50.204;8.132;2023-06-19T20:18:18;97934.78;;;23.65;59.89
59106;BME280;44891;50.204;8.132;2023-06-19T20:22:20;97933.59;;;23.54;60.55
59106;BME280;44891;50.204;8.132;2023-06-19T20:26:22;97940.81;;;23.41;60.42
59106;BME280;44891;50.204;8.132;2023-06-19T20:30:24;97928.72;;;23.35;60.69
59106;BME280;44891;50.204;8.132;2023-06-19T20:34:28;97922.66;;;23.26;61.12
59106;BME280;44891;50.204;8.132;2023-06-19T20:38:31;97921.03;;;22.92;61.77
59106;BME280;44891;50.204;8.132;2023-06-19T20:42:32;97929.44;;;22.52;63.10
59106;BME280;44891;50.204;8.132;2023-06-19T20:46:34;97918.94;;;22.68;62.68
59106;BME280;44891;50.204;8.132;2023-06-19T20:50:37;97927.88;;;22.42;63.35
59106;BME280;44891;50.204;8.132;2023-06-19T20:54:39;97916.66;;;22.19;64.65
59106;BME280;44891;50.204;8.132;2023-06-19T20:58:41;97916.41;;;22.42;64.47
59106;BME280;44891;50.204;8.132;2023-06-19T21:02:43;97922.47;;;22.51;64.05
59106;BME280;44891;50.204;8.132;2023-06-19T21:06:46;97918.13;;;22.38;63.46
59106;BME280;44891;50.204;8.132;2023-06-19T21:10:48;97920.44;;;22.18;64.07
59106;BME280;44891;50.204;8.132;2023-06-19T21:14:50;97915.72;;;22.15;64.11
59106;BME280;44891;50.204;8.132;2023-06-19T21:18:52;97913.63;;;22.30;63.94
59106;BME280;44891;50.204;8.132;2023-06-19T21:22:55;97912.84;;;22.29;64.28